Terminal Aerodrome Forecast
Issued by NWS

Home | Current Version | Previous Version | Text Only | Print | Product List | Glossary On
Versions: 1 2 3 4 5 6 7 8 9 10 11 12 13
000
FTUS43 KDMX 191124
TAFMCW
TAF
KMCW 191124Z 1912/2012 14004KT 1/4SM FG VV002
     FM191330 14006KT 2SM BR BKN003
      TEMPO 1914/1915 1/2SM FG VV002
     FM191600 15011KT P6SM SCT200
     FM200600 16010KT P6SM SCT035 BKN070=

USA.gov is the U.S. government's official web portal to all federal, state and local government web resources and services.